createdAt,value
2022-08-12T00:01:12.700Z,4.70
2022-08-12T00:03:58.557Z,4.70
2022-08-12T00:06:46.621Z,4.50
2022-08-12T00:09:32.468Z,5.00
2022-08-12T00:12:18.781Z,4.70
2022-08-12T00:15:04.119Z,4.80
2022-08-12T00:17:51.039Z,4.90
2022-08-12T00:20:36.865Z,4.70
2022-08-12T00:23:22.286Z,4.10
2022-08-12T00:26:23.696Z,4.50
2022-08-12T00:29:12.198Z,4.80
2022-08-12T00:32:00.110Z,3.80
2022-08-12T00:34:49.159Z,4.10
2022-08-12T00:37:37.521Z,3.70
2022-08-12T00:40:25.929Z,4.20
2022-08-12T00:42:55.470Z,4.30
2022-08-12T00:45:22.366Z,3.80
2022-08-12T00:47:52.726Z,4.20
2022-08-12T00:50:22.377Z,4.30
2022-08-12T00:52:52.114Z,4.10
2022-08-12T00:55:20.764Z,4.00
2022-08-12T00:57:51.298Z,3.80
2022-08-12T01:00:25.200Z,4.40
2022-08-12T01:02:58.039Z,3.70
2022-08-12T01:08:50.066Z,3.70
2022-08-12T01:11:30.809Z,3.60
2022-08-12T01:14:00.993Z,4.70
2022-08-12T01:16:28.462Z,3.90
2022-08-12T01:18:57.266Z,5.10
2022-08-12T01:21:26.887Z,3.50
2022-08-12T01:24:30.957Z,3.70
2022-08-12T01:27:07.402Z,3.70
2022-08-12T01:29:42.233Z,3.50
2022-08-12T01:32:16.674Z,4.20
2022-08-12T01:35:09.888Z,3.80
2022-08-12T01:38:07.761Z,3.70
2022-08-12T01:40:39.106Z,3.10
2022-08-12T01:46:02.546Z,2.60
2022-08-12T01:49:02.617Z,2.90
2022-08-12T01:52:21.508Z,2.90
2022-08-12T01:54:42.436Z,3.50
2022-08-12T01:57:58.947Z,2.70
2022-08-12T02:00:46.921Z,3.10
2022-08-12T02:04:09.373Z,3.40
2022-08-12T02:07:11.556Z,3.10
2022-08-12T02:10:51.058Z,3.00
2022-08-12T02:13:49.444Z,3.30
2022-08-12T02:16:39.131Z,3.10
2022-08-12T02:19:37.741Z,4.00
2022-08-12T02:22:27.642Z,3.30
2022-08-12T02:25:09.300Z,3.40
2022-08-12T02:27:46.992Z,3.10
2022-08-12T02:30:18.959Z,3.50
2022-08-12T02:32:48.962Z,3.30
2022-08-12T02:35:22.909Z,2.90
2022-08-12T02:37:55.269Z,3.10
2022-08-12T02:40:25.380Z,3.30
2022-08-12T02:43:26.863Z,3.20
2022-08-12T02:46:04.537Z,4.10
2022-08-12T02:48:49.693Z,3.60
2022-08-12T02:51:31.499Z,3.80
2022-08-12T02:54:05.997Z,3.80
2022-08-12T02:56:36.824Z,4.10
2022-08-12T02:59:04.308Z,3.80
2022-08-12T03:01:33.539Z,3.60
2022-08-12T03:04:04.870Z,3.50
2022-08-12T03:06:43.204Z,4.00
2022-08-12T03:09:16.555Z,3.40
2022-08-12T03:11:58.864Z,3.90
2022-08-12T03:14:29.593Z,3.90
2022-08-12T03:17:21.532Z,4.00
2022-08-12T03:20:09.282Z,3.50
2022-08-12T03:22:42.139Z,3.50
2022-08-12T03:25:35.380Z,4.20
2022-08-12T03:28:04.342Z,3.90
2022-08-12T03:30:32.390Z,4.40
2022-08-12T03:33:05.528Z,4.70
2022-08-12T03:35:41.446Z,3.90
2022-08-12T03:38:11.613Z,4.00
2022-08-12T03:41:21.656Z,4.20
2022-08-12T03:44:29.456Z,4.10
2022-08-12T03:47:40.848Z,3.70
2022-08-12T03:50:26.819Z,3.80
2022-08-12T03:53:12.332Z,3.30
2022-08-12T03:55:58.195Z,3.60
2022-08-12T03:58:43.952Z,3.80
2022-08-12T04:01:12.415Z,3.80
2022-08-12T04:03:54.337Z,4.00
2022-08-12T04:06:35.496Z,3.30
2022-08-12T04:09:05.316Z,3.80
2022-08-12T04:12:03.093Z,3.20
2022-08-12T04:14:31.192Z,3.80
2022-08-12T04:16:59.153Z,3.90
2022-08-12T04:19:26.752Z,3.70
2022-08-12T04:22:02.071Z,3.50
2022-08-12T04:24:35.764Z,4.10
2022-08-12T04:27:10.991Z,3.50
2022-08-12T04:30:32.913Z,4.00
2022-08-12T04:32:26.088Z,3.90
2022-08-12T04:34:53.995Z,4.00
2022-08-12T04:37:20.846Z,4.40
2022-08-12T04:39:48.187Z,4.60
2022-08-12T04:42:15.539Z,3.90
2022-08-12T04:44:42.792Z,4.20
2022-08-12T04:47:14.469Z,4.70
2022-08-12T04:49:43.501Z,5.20
2022-08-12T04:52:11.777Z,5.20
2022-08-12T04:54:38.838Z,5.40
2022-08-12T04:57:08.786Z,5.60
2022-08-12T04:59:46.484Z,5.80
2022-08-12T05:02:21.226Z,6.60
2022-08-12T05:04:51.300Z,9.00
2022-08-12T05:07:19.794Z,10.20
2022-08-12T05:10:01.062Z,9.50
2022-08-12T05:12:43.755Z,11.10
2022-08-12T05:15:27.634Z,13.60
2022-08-12T05:18:00.092Z,19.10
2022-08-12T05:20:30.255Z,23.60
2022-08-12T05:23:14.887Z,21.20
2022-08-12T05:25:44.188Z,22.50
2022-08-12T05:28:13.564Z,19.20
2022-08-12T05:30:41.898Z,19.00
2022-08-12T05:33:11.049Z,19.40
2022-08-12T05:35:41.115Z,19.30
2022-08-12T05:38:35.451Z,15.00
2022-08-12T05:41:05.864Z,17.20
2022-08-12T05:43:34.437Z,15.20
2022-08-12T05:46:01.286Z,12.40
2022-08-12T05:48:30.297Z,19.00
2022-08-12T05:50:57.163Z,11.50
2022-08-12T05:53:24.036Z,9.20
2022-08-12T05:55:53.132Z,15.40
2022-08-12T05:58:20.609Z,12.60
2022-08-12T06:00:47.442Z,12.10
2022-08-12T06:03:16.806Z,8.50
2022-08-12T06:05:55.006Z,8.30
2022-08-12T06:08:25.076Z,6.70
2022-08-12T06:10:53.197Z,6.30
2022-08-12T06:13:28.222Z,5.30
2022-08-12T06:15:56.524Z,6.40
2022-08-12T06:18:26.651Z,3.60
2022-08-12T06:20:58.773Z,4.00
2022-08-12T06:23:29.585Z,4.60
2022-08-12T06:25:58.954Z,3.10
2022-08-12T06:28:25.840Z,4.50
2022-08-12T06:33:57.858Z,2.90
2022-08-12T06:36:33.414Z,3.40
2022-08-12T06:39:00.750Z,3.10
2022-08-12T06:42:31.043Z,4.60
2022-08-12T06:44:33.405Z,5.70
2022-08-12T06:47:00.242Z,6.60
2022-08-12T06:49:35.506Z,4.20
2022-08-12T06:52:04.001Z,4.50
2022-08-12T06:54:32.720Z,4.10
2022-08-12T06:57:57.155Z,3.90
2022-08-12T06:59:48.018Z,3.40
2022-08-12T07:02:14.957Z,4.10
2022-08-12T07:04:42.741Z,5.60
2022-08-12T07:07:10.205Z,4.70
2022-08-12T07:10:04.464Z,4.80
2022-08-12T07:12:29.588Z,4.90
2022-08-12T07:15:00.978Z,4.30
2022-08-12T07:17:36.927Z,4.50
2022-08-12T07:20:29.773Z,3.90
2022-08-12T07:22:59.790Z,4.00
2022-08-12T07:25:40.312Z,3.30
2022-08-12T07:28:17.406Z,3.10
2022-08-12T07:30:48.566Z,4.00
2022-08-12T07:33:17.783Z,3.60
2022-08-12T07:35:47.180Z,3.80
2022-08-12T07:38:29.314Z,4.20
2022-08-12T07:43:55.914Z,2.60
2022-08-12T07:46:30.597Z,2.80
2022-08-12T07:49:12.150Z,3.50
2022-08-12T07:51:41.391Z,4.00
2022-08-12T07:54:09.872Z,3.90
2022-08-12T07:56:39.252Z,2.70
2022-08-12T07:59:08.116Z,3.30
2022-08-12T08:01:37.534Z,3.00
2022-08-12T08:04:24.624Z,2.90
2022-08-12T08:06:52.694Z,2.60
2022-08-12T08:09:22.730Z,2.90
2022-08-12T08:12:10.111Z,2.70
2022-08-12T08:14:49.975Z,3.30
2022-08-12T08:17:18.083Z,4.70
2022-08-12T08:20:03.300Z,3.20
2022-08-12T08:22:41.849Z,2.40
2022-08-12T08:25:36.591Z,2.60
2022-08-12T08:28:07.371Z,2.60
2022-08-12T08:30:37.660Z,3.30
2022-08-12T08:33:23.464Z,2.80
2022-08-12T08:35:57.204Z,2.60
2022-08-12T08:38:32.748Z,3.10
2022-08-12T08:42:15.460Z,2.80
2022-08-12T08:44:11.678Z,3.30
2022-08-12T08:46:42.918Z,2.80
2022-08-12T08:49:11.217Z,2.70
2022-08-12T08:51:39.216Z,2.70
2022-08-12T08:54:07.929Z,3.00
2022-08-12T08:56:43.642Z,3.00
2022-08-12T08:59:13.860Z,3.10
2022-08-12T09:01:44.450Z,3.30
2022-08-12T09:05:08.165Z,2.60
2022-08-12T09:07:00.191Z,2.00
2022-08-12T09:10:02.639Z,2.60
2022-08-12T09:12:54.381Z,3.00
2022-08-12T09:15:36.226Z,1.90
2022-08-12T09:18:08.699Z,2.40
2022-08-12T09:20:38.297Z,3.00
2022-08-12T09:23:57.159Z,2.30
2022-08-12T09:25:57.646Z,2.00
2022-08-12T09:28:31.292Z,2.50
2022-08-12T09:30:59.640Z,2.30
2022-08-12T09:34:28.118Z,1.90
2022-08-12T09:36:30.623Z,3.10
2022-08-12T09:39:01.865Z,1.70
2022-08-12T09:42:53.149Z,2.10
2022-08-12T09:45:19.204Z,1.90
2022-08-12T09:47:59.366Z,2.10
2022-08-12T09:50:31.172Z,1.90
2022-08-12T09:53:15.057Z,1.90
2022-08-12T09:55:59.659Z,2.00
2022-08-12T09:58:57.158Z,1.90
2022-08-12T10:01:23.937Z,2.30
2022-08-12T10:04:03.004Z,2.10
2022-08-12T10:06:32.311Z,2.10
2022-08-12T10:12:10.823Z,1.70
2022-08-12T10:14:50.323Z,1.60
2022-08-12T10:17:21.939Z,1.60
2022-08-12T10:19:52.500Z,1.80
2022-08-12T10:22:39.960Z,1.50
2022-08-12T10:26:38.185Z,1.90
2022-08-12T10:28:35.767Z,1.90
2022-08-12T10:31:05.218Z,1.80
2022-08-12T10:33:33.942Z,1.70
2022-08-12T10:36:21.681Z,2.00
2022-08-12T10:40:01.154Z,1.90
2022-08-12T10:42:14.800Z,1.60
2022-08-12T10:44:42.909Z,1.70
2022-08-12T10:47:26.519Z,1.70
2022-08-12T10:50:28.250Z,1.70
2022-08-12T10:52:53.558Z,1.80
2022-08-12T10:55:21.353Z,1.90
2022-08-12T10:58:14.317Z,1.70
2022-08-12T11:00:55.212Z,1.60
2022-08-12T11:04:19.711Z,1.60
2022-08-12T11:07:07.995Z,2.00
2022-08-12T11:09:01.736Z,1.90
2022-08-12T11:14:48.100Z,1.90
2022-08-12T11:17:43.769Z,1.60
2022-08-12T11:20:02.221Z,1.60
2022-08-12T11:22:29.047Z,1.50
2022-08-12T11:24:59.175Z,1.70
2022-08-12T11:27:26.092Z,1.40
2022-08-12T11:30:02.376Z,1.80
2022-08-12T11:32:39.205Z,1.40
2022-08-12T11:35:07.782Z,1.30
2022-08-12T11:37:57.971Z,1.50
2022-08-12T11:40:23.769Z,1.40
2022-08-12T11:42:51.862Z,1.60
2022-08-12T11:45:19.237Z,1.50
2022-08-12T11:47:46.420Z,1.60
2022-08-12T11:50:18.933Z,1.40
2022-08-12T11:52:56.274Z,1.50
2022-08-12T11:55:27.482Z,1.50
2022-08-12T11:58:44.033Z,1.60
2022-08-12T12:03:45.624Z,1.60
2022-08-12T12:06:20.170Z,1.70
2022-08-12T12:08:51.506Z,1.60
2022-08-12T12:11:21.784Z,1.80
2022-08-12T12:14:08.228Z,1.40
2022-08-12T12:16:38.012Z,1.90
2022-08-12T12:19:05.336Z,1.80
2022-08-12T12:21:47.453Z,1.10
2022-08-12T12:24:21.099Z,1.40
2022-08-12T12:27:00.101Z,1.40
2022-08-12T12:30:17.687Z,1.50
2022-08-12T12:32:17.049Z,1.40
2022-08-12T12:35:13.466Z,1.70
2022-08-12T12:38:05.194Z,1.60
2022-08-12T12:40:22.045Z,1.50
2022-08-12T12:43:01.691Z,1.50
2022-08-12T12:45:35.560Z,1.40
2022-08-12T12:48:15.483Z,1.20
2022-08-12T12:51:13.329Z,1.30
2022-08-12T12:54:08.537Z,1.60
2022-08-12T12:56:34.787Z,1.30
2022-08-12T12:59:05.472Z,1.20
2022-08-12T13:01:38.176Z,1.20
2022-08-12T13:04:12.057Z,1.50
2022-08-12T13:06:40.605Z,1.20
2022-08-12T13:09:12.843Z,1.40
2022-08-12T13:11:44.417Z,1.30
2022-08-12T13:14:29.165Z,1.50
2022-08-12T13:17:00.791Z,1.20
2022-08-12T13:19:38.919Z,2.10
2022-08-12T13:22:17.950Z,1.60
2022-08-12T13:24:52.156Z,1.60
2022-08-12T13:27:37.338Z,1.20
2022-08-12T13:30:11.799Z,1.30
2022-08-12T13:32:56.512Z,1.20
2022-08-12T13:36:02.663Z,1.50
2022-08-12T13:38:35.247Z,1.30
2022-08-12T13:41:04.040Z,1.10
2022-08-12T13:43:41.303Z,1.00
2022-08-12T13:46:13.276Z,1.10
2022-08-12T13:48:44.949Z,1.40
2022-08-12T13:51:14.291Z,1.20
2022-08-12T13:53:59.247Z,1.60
2022-08-12T13:56:31.493Z,1.40
2022-08-12T13:59:09.132Z,1.70
2022-08-12T14:01:40.306Z,1.20
2022-08-12T14:04:12.003Z,1.00
2022-08-12T14:06:43.489Z,1.30
2022-08-12T14:09:15.500Z,1.10
2022-08-12T14:11:51.136Z,1.40
2022-08-12T14:14:31.136Z,1.10
2022-08-12T14:17:01.799Z,1.10
2022-08-12T14:19:35.939Z,1.20
2022-08-12T14:22:09.824Z,1.10
2022-08-12T14:24:40.490Z,1.20
2022-08-12T14:27:10.310Z,1.20
2022-08-12T14:30:05.767Z,1.50
2022-08-12T14:32:33.802Z,1.10
2022-08-12T14:37:55.386Z,1.30
2022-08-12T14:40:18.474Z,1.10
2022-08-12T14:42:46.873Z,0.90
2022-08-12T14:45:14.279Z,1.10
2022-08-12T14:47:58.367Z,1.00
2022-08-12T14:50:41.230Z,1.00
2022-08-12T14:59:20.336Z,0.90
2022-08-12T15:01:52.240Z,0.90
2022-08-12T15:04:28.092Z,1.00
2022-08-12T15:06:55.175Z,1.00
2022-08-12T15:09:28.679Z,0.90
2022-08-12T15:12:03.355Z,1.10
2022-08-12T15:14:31.742Z,1.00
2022-08-12T15:17:00.301Z,0.90
2022-08-12T15:20:31.135Z,1.80
2022-08-12T15:22:37.642Z,1.40
2022-08-12T15:25:07.393Z,0.90
2022-08-12T15:28:05.643Z,0.70
2022-08-12T15:30:37.076Z,1.10
2022-08-12T15:33:12.847Z,0.90
2022-08-12T15:35:50.152Z,0.80
2022-08-12T15:38:24.908Z,0.90
2022-08-12T15:43:35.654Z,1.00
2022-08-12T15:46:15.182Z,1.00
2022-08-12T15:48:46.352Z,0.70
2022-08-12T15:51:58.951Z,1.40
2022-08-12T15:54:33.352Z,1.00
2022-08-12T15:57:07.716Z,1.10
2022-08-12T16:00:00.197Z,1.20
2022-08-12T16:06:19.136Z,1.60
2022-08-12T16:08:18.332Z,1.10
2022-08-12T16:10:45.564Z,1.30
2022-08-12T16:13:25.296Z,1.20
2022-08-12T16:16:12.201Z,1.30
2022-08-12T16:18:50.805Z,1.40
2022-08-12T16:21:50.630Z,1.60
2022-08-12T16:24:07.731Z,1.60
2022-08-12T16:26:36.093Z,1.70
2022-08-12T16:29:09.330Z,1.50
2022-08-12T16:31:44.580Z,1.70
2022-08-12T16:34:39.982Z,1.70
2022-08-12T16:37:08.020Z,1.80
2022-08-12T16:40:00.252Z,1.90
2022-08-12T16:42:28.065Z,2.00
2022-08-12T16:45:00.115Z,1.60
2022-08-12T16:47:30.736Z,1.90
2022-08-12T16:50:18.865Z,1.80
2022-08-12T16:52:49.722Z,2.40
2022-08-12T16:55:18.807Z,2.00
2022-08-12T16:57:48.033Z,2.20
2022-08-12T17:00:17.465Z,1.90
2022-08-12T17:02:56.446Z,2.00
2022-08-12T17:05:31.148Z,1.90
2022-08-12T17:07:59.828Z,1.80
2022-08-12T17:10:36.060Z,1.90
2022-08-12T17:13:09.758Z,1.70
2022-08-12T17:15:57.033Z,1.90
2022-08-12T17:18:42.807Z,1.70
2022-08-12T17:21:14.740Z,1.70
2022-08-12T17:23:53.813Z,2.20
2022-08-12T17:26:31.078Z,1.60
2022-08-12T17:28:59.652Z,2.00
2022-08-12T17:32:00.893Z,1.80
2022-08-12T17:34:38.432Z,1.90
2022-08-12T17:37:06.649Z,1.90
2022-08-12T17:40:15.280Z,2.40
2022-08-12T17:42:32.204Z,2.10
2022-08-12T17:45:17.845Z,2.20
2022-08-12T17:48:00.120Z,2.20
2022-08-12T17:50:44.667Z,2.10
2022-08-12T17:53:15.936Z,2.30
2022-08-12T17:55:48.039Z,2.00
2022-08-12T18:00:45.342Z,2.50
2022-08-12T18:04:06.951Z,2.00
2022-08-12T18:06:08.572Z,2.30
2022-08-12T18:08:54.238Z,3.40
2022-08-12T18:12:04.203Z,2.60
2022-08-12T18:14:30.213Z,2.70
2022-08-12T18:17:00.360Z,2.40
2022-08-12T18:20:03.726Z,2.50
2022-08-12T18:22:17.719Z,2.30
2022-08-12T18:27:44.311Z,2.90
2022-08-12T18:30:13.105Z,2.70
2022-08-12T18:32:58.310Z,3.10
2022-08-12T18:35:46.627Z,3.30
2022-08-12T18:38:24.585Z,3.20
2022-08-12T18:41:20.946Z,3.20
2022-08-12T18:44:15.696Z,3.90
2022-08-12T18:47:00.861Z,3.90
2022-08-12T18:49:38.361Z,3.50
2022-08-12T18:52:08.657Z,3.60
2022-08-12T18:54:49.344Z,3.80
2022-08-12T18:58:07.770Z,3.60
2022-08-12T19:00:21.516Z,4.00
2022-08-12T19:02:52.185Z,3.40
2022-08-12T19:05:24.255Z,3.20
2022-08-12T19:08:12.564Z,4.60
2022-08-12T19:10:42.322Z,5.60
2022-08-12T19:13:39.205Z,6.60
2022-08-12T19:16:11.733Z,6.20
2022-08-12T19:18:40.492Z,5.80
2022-08-12T19:21:12.143Z,6.30
2022-08-12T19:24:04.566Z,5.50
2022-08-12T19:26:34.179Z,4.80
2022-08-12T19:29:04.446Z,4.70
2022-08-12T19:31:57.362Z,4.10
2022-08-12T19:38:02.471Z,3.60
2022-08-12T19:40:32.475Z,3.30
2022-08-12T19:43:19.848Z,4.40
2022-08-12T19:45:52.415Z,4.80
2022-08-12T19:50:53.159Z,5.50
2022-08-12T19:53:24.584Z,5.60
2022-08-12T19:55:54.075Z,5.10
2022-08-12T19:58:22.844Z,5.10
2022-08-12T20:00:52.840Z,5.00
2022-08-12T20:03:39.380Z,6.00
2022-08-12T20:06:14.188Z,4.50
2022-08-12T20:08:48.662Z,4.70
2022-08-12T20:12:09.663Z,4.50
2022-08-12T20:14:18.477Z,3.50
2022-08-12T20:16:57.870Z,3.40
2022-08-12T20:20:16.368Z,3.30
2022-08-12T20:22:43.457Z,3.20
2022-08-12T20:25:13.368Z,4.10
2022-08-12T20:28:04.007Z,3.50
2022-08-12T20:30:52.922Z,3.90
2022-08-12T20:33:50.888Z,4.70
2022-08-12T20:36:40.334Z,5.50
2022-08-12T20:39:00.532Z,5.20
2022-08-12T20:41:30.697Z,4.50
2022-08-12T20:43:59.376Z,4.10
2022-08-12T20:46:33.081Z,3.50
2022-08-12T20:49:17.399Z,4.00
2022-08-12T20:51:55.019Z,3.80
2022-08-12T20:54:32.488Z,3.70
2022-08-12T20:57:01.528Z,3.20
2022-08-12T20:59:31.862Z,2.90
2022-08-12T21:02:04.672Z,3.50
2022-08-12T21:07:23.651Z,3.50
2022-08-12T21:09:52.367Z,4.30
2022-08-12T21:12:27.700Z,4.00
2022-08-12T21:15:24.365Z,4.60
2022-08-12T21:18:00.600Z,4.20
2022-08-12T21:20:34.776Z,4.80
2022-08-12T21:23:03.748Z,5.30
2022-08-12T21:25:35.898Z,4.70
2022-08-12T21:28:13.640Z,4.70
2022-08-12T21:30:42.630Z,4.60
2022-08-12T21:33:31.404Z,5.10
2022-08-12T21:36:00.345Z,4.30
2022-08-12T21:38:34.328Z,4.80
2022-08-12T21:41:09.026Z,5.30
2022-08-12T21:43:38.998Z,5.40
2022-08-12T21:46:14.802Z,5.40
2022-08-12T21:49:04.824Z,5.50
2022-08-12T21:51:49.797Z,5.70
2022-08-12T21:54:22.079Z,5.40
2022-08-12T21:56:52.332Z,5.30
2022-08-12T21:59:21.429Z,6.10
2022-08-12T22:01:49.682Z,5.30
2022-08-12T22:04:36.429Z,4.60
2022-08-12T22:07:07.573Z,5.20
2022-08-12T22:09:43.021Z,4.90
2022-08-12T22:12:29.365Z,4.40
2022-08-12T22:14:56.366Z,4.30
2022-08-12T22:17:33.144Z,4.90
2022-08-12T22:20:17.180Z,5.60
2022-08-12T22:22:55.976Z,4.90
2022-08-12T22:25:28.170Z,5.10
2022-08-12T22:28:13.489Z,4.20
2022-08-12T22:30:59.541Z,4.70
2022-08-12T22:33:26.447Z,4.80
2022-08-12T22:35:59.528Z,4.20
2022-08-12T22:38:31.476Z,4.70
2022-08-12T22:41:30.653Z,3.50
2022-08-12T22:44:21.208Z,3.70
2022-08-12T22:46:53.298Z,3.90
2022-08-12T22:49:37.112Z,3.30
2022-08-12T22:52:18.673Z,2.80
2022-08-12T22:55:02.674Z,3.00
2022-08-12T22:57:49.320Z,2.50
2022-08-12T23:00:24.011Z,2.40
2022-08-12T23:05:56.685Z,2.50
2022-08-12T23:08:13.799Z,2.50
2022-08-12T23:10:46.452Z,2.70
2022-08-12T23:13:43.395Z,3.30
2022-08-12T23:16:27.802Z,3.30
2022-08-12T23:19:22.831Z,2.90
2022-08-12T23:22:03.926Z,3.00
2022-08-12T23:24:55.868Z,3.50
2022-08-12T23:27:50.793Z,3.30
2022-08-12T23:30:31.964Z,4.20
2022-08-12T23:33:13.522Z,4.10
2022-08-12T23:35:59.371Z,3.80
2022-08-12T23:38:32.873Z,3.70
2022-08-12T23:41:02.688Z,3.30
2022-08-12T23:43:40.815Z,3.30
2022-08-12T23:46:18.566Z,3.00
2022-08-12T23:48:51.612Z,3.50
2022-08-12T23:51:25.468Z,3.10
2022-08-12T23:54:00.222Z,2.90
2022-08-12T23:56:34.471Z,2.80
2022-08-12T23:59:07.216Z,3.10
